createdAt,value
2023-04-18T00:01:54.432Z,78.00
2023-04-18T00:04:22.327Z,78.59
2023-04-18T00:06:51.726Z,78.17
2023-04-18T00:09:19.573Z,77.70
2023-04-18T00:11:48.746Z,76.67
2023-04-18T00:14:16.538Z,75.91
2023-04-18T00:16:44.499Z,76.40
2023-04-18T00:19:12.555Z,75.87
2023-04-18T00:21:44.930Z,76.99
2023-04-18T00:24:12.955Z,76.42
2023-04-18T00:26:40.934Z,75.82
2023-04-18T00:29:10.535Z,76.43
2023-04-18T00:31:38.692Z,77.52
2023-04-18T00:34:06.500Z,77.58
2023-04-18T00:36:34.242Z,77.19
2023-04-18T00:39:01.968Z,76.46
2023-04-18T00:41:31.288Z,76.74
2023-04-18T00:43:59.183Z,76.45
2023-04-18T00:46:28.335Z,76.87
2023-04-18T00:48:56.495Z,77.25
2023-04-18T00:51:24.561Z,77.14
2023-04-18T00:53:52.674Z,77.99
2023-04-18T00:56:20.631Z,78.00
2023-04-18T00:58:48.478Z,78.56
2023-04-18T01:01:16.234Z,76.94
2023-04-18T01:03:46.313Z,76.66
2023-04-18T01:06:16.238Z,76.60
2023-04-18T01:08:45.456Z,77.29
2023-04-18T01:11:13.269Z,76.54
2023-04-18T01:13:41.098Z,77.34
2023-04-18T01:16:08.904Z,76.56
2023-04-18T01:18:37.269Z,78.26
2023-04-18T01:21:06.701Z,77.52
2023-04-18T01:23:34.519Z,78.35
2023-04-18T01:26:03.610Z,78.97
2023-04-18T01:28:31.325Z,77.84
2023-04-18T01:30:59.086Z,77.89
2023-04-18T01:33:26.865Z,79.49
2023-04-18T01:35:54.613Z,78.50
2023-04-18T01:38:22.573Z,78.59
2023-04-18T01:40:50.823Z,78.96
2023-04-18T01:43:20.078Z,79.39
2023-04-18T01:45:47.814Z,78.47
2023-04-18T01:48:15.558Z,79.21
2023-04-18T01:50:43.322Z,79.91
2023-04-18T17:28:24.983Z,67.48
2023-04-18T17:31:14.510Z,67.30
2023-04-18T17:33:42.896Z,65.97
2023-04-18T17:36:11.342Z,67.05
2023-04-18T17:38:40.579Z,66.96
2023-04-18T17:41:08.507Z,67.23
2023-04-18T17:43:37.784Z,67.62
2023-04-18T17:46:06.070Z,66.91
2023-04-18T17:48:34.115Z,67.60
2023-04-18T17:51:02.256Z,68.28
2023-04-18T17:53:32.153Z,68.82
2023-04-18T17:56:00.666Z,67.87
2023-04-18T17:58:29.288Z,67.81
2023-04-18T18:00:58.594Z,68.59
2023-04-18T18:03:26.703Z,68.73
2023-04-18T18:05:55.760Z,69.19
2023-04-18T18:08:24.268Z,70.05
2023-04-18T18:10:52.130Z,69.82
2023-04-18T18:13:19.987Z,71.09
2023-04-18T18:15:47.854Z,70.07
2023-04-18T18:18:29.704Z,69.02
2023-04-18T18:20:58.170Z,69.51
2023-04-18T18:23:28.719Z,70.57
2023-04-18T18:25:56.574Z,70.31
2023-04-18T18:28:24.448Z,70.67
2023-04-18T18:30:52.516Z,69.91
2023-04-18T18:33:20.466Z,71.29
2023-04-18T18:35:49.858Z,70.43
2023-04-18T18:38:17.813Z,70.65
2023-04-18T18:40:45.732Z,70.05
2023-04-18T18:43:13.769Z,70.98
2023-04-18T18:45:41.680Z,70.71
2023-04-18T18:48:10.076Z,70.82
2023-04-18T18:50:41.816Z,70.48
2023-04-18T18:53:11.188Z,70.15
2023-04-18T18:55:39.324Z,70.36
2023-04-18T18:58:09.701Z,71.40
2023-04-18T19:00:37.654Z,71.61
2023-04-18T19:03:05.702Z,73.13
2023-04-18T19:05:34.809Z,73.96
2023-04-18T19:08:04.890Z,73.14
2023-04-18T19:10:34.375Z,73.19
2023-04-18T19:13:02.370Z,72.60
2023-04-18T19:15:30.724Z,72.58
2023-04-18T19:17:58.794Z,73.52
2023-04-18T19:20:28.804Z,73.59
2023-04-18T19:22:57.313Z,74.40
2023-04-18T19:25:25.984Z,74.45
2023-04-18T19:27:55.310Z,74.02
2023-04-18T19:30:24.407Z,74.21
2023-04-18T19:32:52.469Z,74.59
2023-04-18T19:35:21.136Z,74.78
2023-04-18T19:37:49.071Z,74.48
2023-04-18T19:40:17.477Z,75.14
2023-04-18T19:42:46.466Z,75.97
2023-04-18T19:45:16.117Z,75.80
2023-04-18T19:47:45.016Z,75.96
2023-04-18T19:50:13.018Z,75.80
2023-04-18T19:52:41.172Z,77.21
2023-04-18T19:55:10.102Z,78.11
2023-04-18T19:57:40.018Z,78.21
2023-04-18T20:00:09.998Z,77.11
2023-04-18T20:02:42.627Z,77.59
2023-04-18T20:05:11.418Z,77.61
2023-04-18T20:07:39.705Z,78.00
2023-04-18T20:10:09.496Z,77.03
2023-04-18T20:12:37.591Z,77.68
2023-04-18T20:15:06.794Z,78.65
2023-04-18T20:17:35.237Z,78.71
2023-04-18T20:20:08.180Z,77.99
2023-04-18T20:22:37.120Z,77.19
2023-04-18T20:25:06.787Z,77.47
2023-04-18T20:27:34.936Z,77.63
2023-04-18T20:30:03.002Z,76.62
2023-04-18T20:32:32.153Z,77.86
2023-04-18T20:35:00.265Z,77.56
2023-04-18T20:37:29.694Z,77.65
2023-04-18T20:39:58.700Z,77.43
2023-04-18T20:42:27.444Z,77.76
2023-04-18T20:44:55.404Z,78.23
2023-04-18T20:47:23.526Z,77.45
2023-04-18T20:49:51.485Z,77.83
2023-04-18T20:52:19.326Z,78.81
2023-04-18T20:54:48.555Z,77.51
2023-04-18T20:57:16.450Z,77.66
2023-04-18T20:59:44.303Z,78.45
2023-04-18T21:02:12.287Z,78.75
2023-04-18T21:04:40.674Z,78.51
2023-04-18T21:07:08.729Z,78.80
2023-04-18T21:09:37.384Z,78.43
2023-04-18T21:12:07.120Z,79.03
2023-04-18T21:14:35.038Z,78.93
2023-04-18T21:17:02.940Z,78.26
2023-04-18T21:19:30.807Z,78.30
2023-04-18T21:21:58.742Z,77.86
2023-04-18T21:24:26.569Z,77.95
2023-04-18T21:26:54.492Z,79.28
2023-04-18T21:29:23.876Z,78.27
2023-04-18T21:31:51.816Z,77.91
2023-04-18T21:34:20.105Z,77.27
2023-04-18T21:36:47.975Z,77.67
2023-04-18T21:39:15.940Z,77.85
2023-04-18T21:41:43.929Z,78.82
2023-04-18T21:44:11.995Z,79.38
2023-04-18T21:46:41.186Z,78.26
2023-04-18T21:49:09.068Z,77.74
2023-04-18T21:51:37.114Z,77.76
2023-04-18T21:54:07.127Z,77.39
2023-04-18T21:56:34.961Z,77.88
2023-04-18T21:59:02.788Z,78.00
2023-04-18T22:01:30.727Z,78.08
2023-04-18T22:04:00.300Z,76.91
2023-04-18T22:06:28.313Z,76.94
2023-04-18T22:08:56.274Z,77.40
2023-04-18T22:11:24.428Z,75.20
2023-04-18T22:13:54.157Z,75.29
2023-04-18T22:16:22.830Z,75.73
2023-04-18T22:18:50.859Z,74.44
2023-04-18T22:21:20.061Z,73.75
2023-04-18T22:23:47.921Z,73.12
2023-04-18T22:26:15.842Z,72.21
2023-04-18T22:28:43.733Z,72.61
2023-04-18T22:31:11.605Z,71.74
2023-04-18T22:33:39.466Z,72.21
2023-04-18T22:36:07.555Z,71.97
2023-04-18T22:38:36.705Z,71.26
2023-04-18T22:41:04.615Z,71.87
2023-04-18T22:43:33.620Z,71.38
2023-04-18T22:46:01.602Z,71.63
2023-04-18T22:48:30.005Z,71.63
2023-04-18T22:50:57.969Z,71.93
2023-04-18T22:53:25.844Z,72.55
2023-04-18T22:55:55.004Z,72.60
2023-04-18T22:58:22.837Z,72.32
2023-04-18T23:00:50.796Z,71.43
2023-04-18T23:03:18.860Z,71.37
2023-04-18T23:05:46.892Z,70.77
2023-04-18T23:08:14.784Z,69.64
2023-04-18T23:10:42.620Z,70.13
2023-04-18T23:13:11.832Z,69.21
2023-04-18T23:15:39.750Z,69.65
2023-04-18T23:18:07.688Z,68.77
2023-04-18T23:20:36.342Z,69.25
2023-04-18T23:23:04.359Z,69.34
2023-04-18T23:25:33.502Z,69.93
2023-04-18T23:28:01.404Z,68.52
2023-04-18T23:30:30.804Z,68.59
2023-04-18T23:32:58.738Z,68.14
2023-04-18T23:35:26.715Z,69.40
2023-04-18T23:37:54.514Z,67.93
2023-04-18T23:40:22.930Z,68.85
2023-04-18T23:42:50.788Z,69.32
2023-04-18T23:45:18.914Z,69.81
2023-04-18T23:47:48.187Z,70.24
2023-04-18T23:50:16.125Z,71.53
2023-04-18T23:52:43.964Z,71.61
2023-04-18T23:55:11.807Z,71.52
2023-04-18T23:57:39.630Z,71.69
